Time;durP1;ratioP1;P1;durP2;ratioP2;P2;SDS_P1;SDS_P2;PMS_P1;PMS_P2;Temp;Humidity;BMP_temperature;BMP_pressure;BME280_temperature;BME280_humidity;BME280_pressure;Samples;Min_cycle;Max_cycle;Signal;HPM_P1;HPM_P2
2021/03/22 00:02:34;;;;;;;8.18;5.45;;;;;;;2.29;46.21;100166.56;5072289;28;20059;-76
2021/03/22 00:05:39;;;;;;;7.78;5.30;;;;;;;2.23;46.12;100158.97;5103841;28;20051;-75
2021/03/22 00:08:43;;;;;;;7.78;5.53;;;;;;;2.18;46.24;100153.94;5094303;28;20047;-74
2021/03/22 00:11:49;;;;;;;8.38;5.40;;;;;;;2.20;46.12;100154.69;5098459;28;20055;-73
2021/03/22 00:14:54;;;;;;;6.75;5.45;;;;;;;2.16;46.50;100155.81;5083549;28;20039;-72
2021/03/22 00:17:59;;;;;;;8.07;5.60;;;;;;;2.20;46.24;100157.34;5095776;28;20047;-75
2021/03/22 00:21:05;;;;;;;8.18;6.03;;;;;;;2.18;46.16;100159.22;5110908;28;20058;-74
2021/03/22 00:24:09;;;;;;;9.18;5.90;;;;;;;2.12;46.01;100164.91;5084263;28;20054;-80
2021/03/22 00:27:14;;;;;;;7.47;5.25;;;;;;;2.11;46.66;100165.81;5096758;28;20044;-75
2021/03/22 00:30:25;;;;;;;7.70;5.80;;;;;;;2.09;46.38;100161.56;5105530;28;20044;-80
2021/03/22 00:33:29;;;;;;;8.02;5.65;;;;;;;2.07;46.73;100166.09;5097160;28;20051;-79
2021/03/22 00:36:34;;;;;;;11.23;4.60;;;;;;;2.04;46.64;100158.31;5102655;28;20506;-78
2021/03/22 00:39:38;;;;;;;7.68;5.38;;;;;;;1.99;47.00;100155.91;5102226;28;20051;-80
2021/03/22 00:42:43;;;;;;;7.00;5.45;;;;;;;1.98;46.91;100147.13;5109480;28;20043;-77
2021/03/22 00:45:48;;;;;;;7.72;5.47;;;;;;;1.97;46.95;100147.22;5100136;28;20054;-80
2021/03/22 00:48:52;;;;;;;8.10;5.88;;;;;;;1.96;47.09;100146.34;5098302;28;20315;-78
2021/03/22 00:51:56;;;;;;;8.23;5.55;;;;;;;1.88;46.94;100132.69;5100289;28;20043;-80
2021/03/22 00:55:01;;;;;;;8.15;5.38;;;;;;;1.89;47.26;100144.13;5090089;28;20481;-81
2021/03/22 00:58:06;;;;;;;9.25;5.80;;;;;;;1.88;47.20;100145.06;5113989;28;20054;-76
2021/03/22 01:01:10;;;;;;;7.57;5.40;;;;;;;1.86;47.23;100154.88;5097880;28;20062;-76
2021/03/22 01:04:14;;;;;;;9.00;5.15;;;;;;;1.85;47.09;100151.38;5096242;28;20055;-79
2021/03/22 01:07:19;;;;;;;8.18;5.45;;;;;;;1.83;47.41;100153.25;5095353;28;20398;-80
2021/03/22 01:10:32;;;;;;;8.05;5.53;;;;;;;1.82;47.18;100150.72;5083143;28;20054;-83
2021/03/22 01:13:46;;;;;;;7.82;5.53;;;;;;;1.84;47.01;100156.78;5107867;28;20054;-79
2021/03/22 01:16:51;;;;;;;8.30;5.55;;;;;;;1.83;47.21;100157.69;5091787;28;20506;-79
2021/03/22 01:19:55;;;;;;;8.70;5.85;;;;;;;1.82;47.11;100156.00;5122584;28;20402;-76
2021/03/22 01:23:00;;;;;;;7.20;5.45;;;;;;;1.80;47.09;100150.78;5093973;28;20046;-81
2021/03/22 01:26:06;;;;;;;8.40;5.88;;;;;;;1.79;47.13;100146.44;5099799;28;20422;-77
2021/03/22 01:29:48;;;;;;;9.80;6.03;;;;;;;1.80;47.37;100148.13;5102638;28;20051;-77
2021/03/22 01:32:53;;;;;;;7.88;5.43;;;;;;;1.76;47.64;100141.31;5017972;28;20044;-76
2021/03/22 01:36:00;;;;;;;6.55;5.32;;;;;;;1.75;47.55;100138.78;5020525;28;20153;-78
2021/03/22 01:39:15;;;;;;;7.30;5.35;;;;;;;1.76;47.46;100141.31;5027527;28;20511;-74
2021/03/22 01:42:42;;;;;;;8.38;5.38;;;;;;;1.78;47.37;100143.88;5019877;28;20060;-78
2021/03/22 01:45:47;;;;;;;7.03;5.57;;;;;;;1.68;47.72;100132.13;5021157;28;20052;-77
2021/03/22 01:48:51;;;;;;;10.65;5.45;;;;;;;1.70;47.87;100135.53;5031281;28;20157;-77
2021/03/22 01:51:56;;;;;;;7.10;5.50;;;;;;;1.66;47.85;100140.13;5031875;28;20492;-76
2021/03/22 01:55:01;;;;;;;7.65;5.75;;;;;;;1.60;47.97;100135.19;5028488;28;20048;-78
2021/03/22 01:58:07;;;;;;;6.88;5.28;;;;;;;1.58;48.12;100137.03;5031647;28;20144;-80
2021/03/22 02:01:12;;;;;;;7.03;5.45;;;;;;;1.53;48.65;100132.94;5031786;28;20396;-81
2021/03/22 02:04:17;;;;;;;8.65;5.95;;;;;;;1.47;48.52;100122.69;5031000;28;20065;-77
2021/03/22 02:07:22;;;;;;;11.40;5.65;;;;;;;1.45;48.61;100120.13;5031267;28;20141;-80
2021/03/22 02:10:26;;;;;;;7.30;5.68;;;;;;;1.41;48.75;100117.75;5103593;28;20046;-77
2021/03/22 02:13:35;;;;;;;9.18;5.75;;;;;;;1.43;48.88;100118.50;5105442;28;20051;-80
2021/03/22 02:16:59;;;;;;;6.88;5.25;;;;;;;1.41;49.04;100108.00;5093324;28;20062;-77
2021/03/22 02:20:30;;;;;;;6.97;5.32;;;;;;;1.40;48.94;100106.31;5089395;28;20395;-77
2021/03/22 02:24:05;;;;;;;8.32;5.68;;;;;;;1.45;48.55;100104.28;5094338;28;20536;-76
2021/03/22 02:27:15;;;;;;;8.18;5.60;;;;;;;1.47;48.49;100098.88;5103638;28;20066;-76
2021/03/22 02:30:51;;;;;;;9.02;5.78;;;;;;;1.44;48.56;100102.56;5089043;28;20043;-80
2021/03/22 02:34:18;;;;;;;7.18;5.40;;;;;;;1.41;48.83;100101.88;5108750;28;20509;-82
2021/03/22 02:37:32;;;;;;;8.00;5.63;;;;;;;1.42;48.83;100099.16;5111336;28;20102;-77
2021/03/22 02:40:50;;;;;;;6.72;5.28;;;;;;;1.38;48.64;100094.97;5102680;28;20039;-76
2021/03/22 02:44:06;;;;;;;9.15;5.32;;;;;;;1.37;48.72;100106.47;5104118;28;20391;-77
2021/03/22 02:47:32;;;;;;;8.18;5.45;;;;;;;1.31;49.12;100093.56;5093423;28;20046;-78
2021/03/22 02:50:39;;;;;;;7.85;5.68;;;;;;;1.30;49.12;100097.16;5098958;28;20368;-81
2021/03/22 02:53:51;;;;;;;8.63;5.25;;;;;;;1.24;49.10;100095.69;5087066;28;20043;-80
2021/03/22 02:57:39;;;;;;;7.80;6.05;;;;;;;1.27;49.34;100100.84;5100721;28;20387;-80
2021/03/22 03:01:01;;;;;;;6.47;5.25;;;;;;;1.26;49.40;100099.09;4992623;28;20058;-78
2021/03/22 03:04:09;;;;;;;7.60;5.45;;;;;;;1.28;48.54;100101.69;5012765;28;20137;-76
2021/03/22 03:07:23;;;;;;;7.32;5.30;;;;;;;1.31;48.69;100090.94;5014010;28;20061;-79
2021/03/22 03:10:27;;;;;;;;;;;;;;;1.32;48.64;100087.34;5015085;28;20150;-81
2021/03/22 03:13:31;;;;;;;6.32;4.93;;;;;;;1.33;48.38;100094.38;5014114;28;19917;-78
2021/03/22 03:16:36;;;;;;;6.82;5.05;;;;;;;1.32;48.15;100087.34;4995678;28;20049;-78
2021/03/22 03:19:41;;;;;;;7.13;5.07;;;;;;;1.28;48.24;100086.66;5008553;28;20053;-80
2021/03/22 03:22:45;;;;;;;7.88;5.05;;;;;;;1.31;47.96;100090.94;4997215;28;20110;-79
2021/03/22 03:25:50;;;;;;;10.23;5.68;;;;;;;1.31;48.19;100093.56;5010050;28;20072;-78
2021/03/22 03:28:54;;;;;;;7.80;4.75;;;;;;;1.29;48.18;100101.59;5014133;28;20049;-78
2021/03/22 03:31:59;;;;;;;7.00;5.10;;;;;;;1.27;48.54;100102.63;4998486;28;20049;-75
2021/03/22 03:35:07;;;;;;;7.47;5.18;;;;;;;1.29;48.55;100104.25;5080143;28;20046;-77
2021/03/22 03:38:12;;;;;;;6.57;5.22;;;;;;;1.31;48.15;100101.50;5095786;28;20047;-80
2021/03/22 03:41:16;;;;;;;7.43;5.40;;;;;;;1.29;48.48;100098.94;5086809;28;20051;-76
2021/03/22 03:44:21;;;;;;;10.02;5.32;;;;;;;1.30;48.31;100105.97;5110946;28;20062;-77
2021/03/22 03:47:25;;;;;;;6.93;5.10;;;;;;;1.33;48.30;100114.66;5092234;28;20051;-82
2021/03/22 03:50:31;;;;;;;11.18;5.63;;;;;;;1.31;48.34;100109.44;5109167;28;20047;-80
2021/03/22 03:53:35;;;;;;;8.13;5.18;;;;;;;1.28;48.21;100107.81;5104399;28;20043;-77
2021/03/22 03:56:40;;;;;;;7.60;4.80;;;;;;;1.27;48.00;100108.75;5098618;28;20047;-78
2021/03/22 03:59:44;;;;;;;7.28;5.20;;;;;;;1.24;48.11;100105.41;5088703;28;20046;-76
2021/03/22 04:02:50;;;;;;;6.80;4.68;;;;;;;1.28;48.30;100106.97;5090073;28;20051;-78
2021/03/22 04:05:59;;;;;;;7.13;4.63;;;;;;;1.28;47.95;100112.25;5099351;28;20051;-76
2021/03/22 04:09:10;;;;;;;7.28;5.15;;;;;;;1.26;48.22;100101.75;5083438;28;20047;-75
2021/03/22 04:12:14;;;;;;;9.10;5.50;;;;;;;1.17;48.20;100093.47;5100811;28;20503;-79
2021/03/22 04:15:19;;;;;;;7.07;4.72;;;;;;;1.17;48.86;100089.03;5103677;28;20375;-76
2021/03/22 04:18:23;;;;;;;7.90;4.85;;;;;;;1.19;48.55;100092.44;5106223;28;20056;-80
2021/03/22 04:21:29;;;;;;;6.68;4.65;;;;;;;1.20;48.40;100094.16;5106900;28;20047;-75
2021/03/22 04:24:34;;;;;;;6.22;4.60;;;;;;;1.21;48.22;100089.75;5096730;28;20051;-77
2021/03/22 04:27:39;;;;;;;6.60;4.85;;;;;;;1.20;48.26;100088.88;5103584;28;20430;-79
2021/03/22 04:30:43;;;;;;;9.90;4.82;;;;;;;1.19;48.33;100094.22;5095692;28;20067;-82
2021/03/22 04:33:50;;;;;;;7.68;4.82;;;;;;;1.24;48.37;100097.50;5057706;28;20400;-78
2021/03/22 04:36:54;;;;;;;5.68;4.07;;;;;;;1.33;48.14;100098.78;5060829;28;20515;-76
2021/03/22 04:39:58;;;;;;;6.65;4.90;;;;;;;1.39;48.35;100109.03;5064281;28;20044;-75
2021/03/22 04:43:03;;;;;;;7.18;5.20;;;;;;;1.33;48.46;100120.81;5056594;28;20044;-74
2021/03/22 04:46:07;;;;;;;5.72;4.75;;;;;;;1.29;48.92;100111.31;5064942;28;20047;-76
2021/03/22 04:49:12;;;;;;;9.30;5.05;;;;;;;1.31;48.42;100106.78;5061692;28;20044;-74
2021/03/22 04:52:16;;;;;;;6.68;5.05;;;;;;;1.40;48.46;100118.66;5063001;28;20048;-74
2021/03/22 04:55:22;;;;;;;7.90;4.97;;;;;;;1.36;49.09;100133.84;5060372;28;20059;-73
2021/03/22 04:58:27;;;;;;;7.03;5.15;;;;;;;1.30;48.96;100139.47;5063704;28;20060;-77
2021/03/22 05:01:31;;;;;;;6.15;4.82;;;;;;;1.34;49.08;100143.66;5060869;28;20504;-75
2021/03/22 05:04:36;;;;;;;7.78;5.13;;;;;;;1.30;48.97;100142.97;5063322;28;20052;-77
2021/03/22 05:07:40;;;;;;;8.25;5.10;;;;;;;1.25;49.00;100144.16;5064103;28;20116;-75
2021/03/22 05:10:47;;;;;;;7.32;5.15;;;;;;;1.22;48.57;100144.31;5058328;28;20060;-80
2021/03/22 05:13:52;;;;;;;6.72;4.93;;;;;;;1.17;48.47;100141.91;5061622;28;20088;-74
2021/03/22 05:16:56;;;;;;;6.72;4.35;;;;;;;1.22;48.13;100144.31;5061233;28;20396;-77
2021/03/22 05:20:01;;;;;;;8.60;5.43;;;;;;;1.23;48.14;100148.66;5059867;28;20040;-76
2021/03/22 05:23:10;;;;;;;6.00;4.68;;;;;;;1.25;48.12;100147.66;5059843;28;20519;-75
2021/03/22 05:26:15;;;;;;;9.00;4.90;;;;;;;1.27;47.69;100148.41;5056130;28;20040;-78
2021/03/22 05:29:24;;;;;;;8.88;4.93;;;;;;;1.38;47.99;100155.78;5062761;28;20047;-78
2021/03/22 05:32:32;;;;;;;6.82;5.43;;;;;;;1.44;47.59;100149.28;5075583;28;20039;-73
2021/03/22 05:35:37;;;;;;;6.70;5.30;;;;;;;1.48;47.10;100151.69;5063305;28;20143;-76
2021/03/22 05:38:42;;;;;;;9.70;5.50;;;;;;;1.58;47.19;100158.19;5050344;28;20052;-79
2021/03/22 05:42:07;;;;;;;8.52;6.15;;;;;;;1.71;46.79;100156.59;5054076;28;20148;-76
2021/03/22 05:45:47;;;;;;;7.72;4.88;;;;;;;1.87;46.60;100154.81;5059875;28;20043;-78
2021/03/22 05:48:51;;;;;;;7.55;4.85;;;;;;;2.07;46.32;100169.59;5049697;28;20044;-77
2021/03/22 05:51:56;;;;;;;7.68;4.70;;;;;;;2.21;45.62;100168.78;5052312;28;20052;-75
2021/03/22 05:55:18;;;;;;;6.78;5.03;;;;;;;2.41;45.20;100161.44;5059282;28;20495;-77
2021/03/22 05:59:06;;;;;;;8.98;5.00;;;;;;;2.52;45.17;100169.59;5047002;28;20040;-79
2021/03/22 06:02:24;;;;;;;9.27;5.20;;;;;;;2.56;45.01;100167.63;5046867;28;20052;-78
2021/03/22 06:05:37;;;;;;;7.18;5.25;;;;;;;2.69;44.96;100170.44;5055820;28;20051;-75
2021/03/22 06:09:09;;;;;;;11.35;4.65;;;;;;;2.85;44.61;100174.72;5111664;28;20051;-79
2021/03/22 06:12:26;;;;;;;9.40;4.88;;;;;;;3.11;44.45;100176.66;5090564;28;20055;-80
2021/03/22 06:15:37;;;;;;;53.55;33.58;;;;;;;3.22;44.08;100181.34;5089859;28;20039;-81
2021/03/22 06:19:02;;;;;;;17.45;7.07;;;;;;;3.49;43.50;100178.78;5103626;28;20137;-79
2021/03/22 06:22:06;;;;;;;9.88;5.05;;;;;;;3.83;42.79;100183.72;5091407;28;20048;-78
2021/03/22 06:25:33;;;;;;;12.25;5.03;;;;;;;4.14;42.09;100178.19;5102038;28;20039;-79
2021/03/22 06:28:38;;;;;;;17.63;4.45;;;;;;;4.14;42.11;100190.59;5103098;28;20044;-76
2021/03/22 06:31:43;;;;;;;18.05;4.78;;;;;;;4.20;41.87;100185.72;5103608;28;20084;-75
2021/03/22 06:34:52;;;;;;;9.40;4.40;;;;;;;4.47;41.49;100196.38;5104152;28;20059;-77
2021/03/22 06:37:56;;;;;;;14.13;4.70;;;;;;;5.08;40.41;100188.69;5088674;28;20055;-81
2021/03/22 06:41:39;;;;;;;17.38;5.47;;;;;;;5.12;40.18;100190.19;5107424;28;20055;-78
2021/03/22 06:44:43;;;;;;;14.77;7.30;;;;;;;5.14;40.60;100200.72;5107731;28;20044;-80
2021/03/22 06:47:48;;;;;;;13.15;7.47;;;;;;;5.56;40.19;100191.56;5107917;28;20521;-79
2021/03/22 06:51:03;;;;;;;18.33;6.70;;;;;;;5.63;40.06;100206.19;5095560;28;20055;-79
2021/03/22 06:54:28;;;;;;;12.40;6.20;;;;;;;6.03;39.83;100198.91;5095289;28;20047;-76
2021/03/22 06:57:33;;;;;;;11.88;5.50;;;;;;;6.03;39.23;100210.41;5084727;28;20051;-80
2021/03/22 07:00:38;;;;;;;11.55;5.97;;;;;;;6.29;39.23;100201.41;5099989;28;20051;-75
2021/03/22 07:03:43;;;;;;;30.52;14.02;;;;;;;6.50;39.26;100198.97;5099366;28;20051;-76
2021/03/22 07:07:24;;;;;;;20.73;7.00;;;;;;;6.70;38.24;100198.38;5097155;28;20047;-74
2021/03/22 07:10:34;;;;;;;15.68;5.45;;;;;;;6.84;38.28;100203.50;4999360;28;20057;-80
2021/03/22 07:13:39;;;;;;;11.50;5.03;;;;;;;7.29;37.30;100198.31;5000839;28;20049;-79
2021/03/22 07:16:43;;;;;;;13.07;5.05;;;;;;;7.49;36.98;100200.31;5002120;28;20057;-77
2021/03/22 07:20:12;;;;;;;9.77;4.57;;;;;;;9.80;33.45;100197.94;5003377;28;20050;-81
2021/03/22 07:23:22;;;;;;;11.30;5.07;;;;;;;10.92;31.05;100195.03;5002578;28;20547;-80
2021/03/22 07:26:58;;;;;;;7.50;5.00;;;;;;;12.45;29.30;100197.38;4999764;28;20038;-79
2021/03/22 07:30:36;;;;;;;11.13;4.15;;;;;;;11.80;29.72;100195.66;4999951;28;20061;-79
2021/03/22 07:34:01;;;;;;;10.02;4.22;;;;;;;11.32;30.20;100190.38;4983228;28;20146;-84
2021/03/22 07:37:16;;;;;;;13.93;4.68;;;;;;;12.21;29.59;100194.38;4994702;28;20146;-86
2021/03/22 07:40:50;;;;;;;9.38;4.55;;;;;;;12.64;29.20;100196.41;4995007;28;20386;-82
2021/03/22 07:44:12;;;;;;;12.48;5.25;;;;;;;14.58;26.84;100183.34;4995046;28;20118;-74
2021/03/22 07:47:56;;;;;;;14.10;4.38;;;;;;;18.39;21.94;100190.47;5055300;28;20068;-72
2021/03/22 07:51:37;;;;;;;11.80;4.35;;;;;;;23.82;17.20;100174.66;5054830;28;20396;-77
2021/03/22 07:55:01;;;;;;;11.43;5.68;;;;;;;31.46;11.67;100165.38;5056029;28;20048;-73
2021/03/22 07:58:30;;;;;;;19.20;3.90;;;;;;;34.11;10.30;100167.66;5055761;28;20060;-73
2021/03/22 08:02:11;;;;;;;10.05;3.72;;;;;;;36.86;9.35;100174.09;5055992;28;20048;-72
2021/03/22 08:05:25;;;;;;;6.65;2.80;;;;;;;38.37;7.97;100184.44;5055825;28;20067;-75
2021/03/22 08:09:04;;;;;;;8.20;2.85;;;;;;;40.50;7.42;100176.56;5055749;28;20056;-74
2021/03/22 08:12:16;;;;;;;5.95;2.53;;;;;;;39.61;7.23;100189.47;5055707;28;20048;-73
2021/03/22 08:15:49;;;;;;;7.60;3.17;;;;;;;40.54;7.21;100197.28;5058329;28;20048;-74
2021/03/22 08:18:58;;;;;;;5.57;2.53;;;;;;;42.20;6.70;100196.25;5053182;28;20060;-76
2021/03/22 08:22:24;;;;;;;7.28;2.72;;;;;;;42.11;6.88;100207.66;5052963;28;20044;-77
2021/03/22 08:25:36;;;;;;;7.28;2.88;;;;;;;42.79;6.63;100210.03;5052906;28;20056;-74
2021/03/22 08:28:48;;;;;;;3.50;2.33;;;;;;;41.65;6.75;100209.88;5052880;28;20059;-80
2021/03/22 08:32:17;;;;;;;5.15;2.40;;;;;;;42.43;6.63;100203.16;5054872;28;20052;-73
2021/03/22 08:35:32;;;;;;;25.02;4.07;;;;;;;41.33;7.12;100206.63;5055503;28;20044;-74
2021/03/22 08:38:53;;;;;;;9.45;2.72;;;;;;;39.92;7.13;100208.97;5055191;28;20055;-74
2021/03/22 08:42:13;;;;;;;4.70;2.15;;;;;;;39.40;7.21;100212.91;5054401;28;20047;-74
2021/03/22 08:45:42;;;;;;;5.88;2.55;;;;;;;40.25;6.86;100206.44;5042910;28;20178;-74
2021/03/22 08:48:48;;;;;;;4.63;2.50;;;;;;;41.60;6.47;100201.63;5055082;28;20393;-74
2021/03/22 08:51:54;;;;;;;4.75;2.80;;;;;;;42.81;6.11;100221.81;5055033;28;20384;-74
2021/03/22 08:55:04;;;;;;;4.28;2.50;;;;;;;41.19;6.72;100219.31;5054916;28;20056;-74
2021/03/22 08:58:22;;;;;;;4.00;2.08;;;;;;;41.31;6.72;100219.41;5054829;28;20063;-74
2021/03/22 09:01:31;;;;;;;5.82;2.50;;;;;;;38.97;7.07;100221.22;5054719;28;20071;-74
2021/03/22 09:04:35;;;;;;;6.93;2.42;;;;;;;39.77;7.03;100219.88;5054772;28;20116;-74
2021/03/22 09:07:41;;;;;;;3.72;2.60;;;;;;;39.46;7.04;100215.22;5054720;28;20060;-74
2021/03/22 09:10:47;;;;;;;4.18;2.63;;;;;;;38.70;8.23;100218.59;5053845;28;20428;-74
2021/03/22 09:14:06;;;;;;;5.65;2.83;;;;;;;35.61;9.09;100214.38;5054593;28;20044;-74
2021/03/22 09:17:23;;;;;;;6.03;3.10;;;;;;;35.04;9.43;100205.09;5054709;28;20053;-74
2021/03/22 09:20:29;;;;;;;5.35;2.63;;;;;;;35.00;9.47;100205.97;5054472;28;20098;-74
2021/03/22 09:23:33;;;;;;;6.63;2.50;;;;;;;31.60;10.40;100212.03;5054362;28;20044;-74
2021/03/22 09:26:50;;;;;;;7.22;2.70;;;;;;;27.84;12.58;100233.78;5053994;28;20059;-74
2021/03/22 09:30:01;;;;;;;5.10;2.35;;;;;;;25.51;14.17;100237.94;5053940;28;20048;-74
2021/03/22 09:33:05;;;;;;;5.20;3.05;;;;;;;23.84;15.64;100229.25;5076888;28;20423;-73
2021/03/22 09:36:11;;;;;;;7.18;3.10;;;;;;;22.41;17.02;100228.91;5081817;28;20059;-74
2021/03/22 09:39:18;;;;;;;6.93;3.20;;;;;;;21.01;18.10;100247.25;5081720;28;20058;-73
2021/03/22 09:42:25;;;;;;;5.32;3.50;;;;;;;19.97;18.75;100233.84;5094235;28;20039;-73
2021/03/22 09:45:31;;;;;;;8.48;3.55;;;;;;;19.55;19.26;100232.03;5081655;28;20375;-74
2021/03/22 09:48:40;;;;;;;5.70;3.20;;;;;;;18.73;20.30;100236.09;5081547;28;20047;-74
2021/03/22 09:51:51;;;;;;;5.90;3.85;;;;;;;18.53;20.41;100238.56;5094074;28;20043;-73
2021/03/22 09:54:58;;;;;;;6.30;3.60;;;;;;;18.33;21.08;100229.25;5094104;28;20062;-74
2021/03/22 09:58:43;;;;;;;7.85;3.78;;;;;;;18.13;21.03;100244.41;5094072;28;20074;-74
2021/03/22 10:01:48;;;;;;;6.68;3.78;;;;;;;17.75;20.99;100237.34;5081517;28;20106;-74
2021/03/22 10:05:27;;;;;;;4.70;3.20;;;;;;;17.48;21.16;100247.69;5081510;28;20046;-74
2021/03/22 10:08:32;;;;;;;5.30;3.63;;;;;;;17.14;21.13;100246.41;5093945;28;20051;-74
2021/03/22 10:11:41;;;;;;;4.50;3.60;;;;;;;17.13;20.88;100247.44;5094156;28;20047;-74
2021/03/22 10:15:02;;;;;;;4.20;3.47;;;;;;;16.68;21.58;100249.03;5096324;28;20051;-74
2021/03/22 10:18:09;;;;;;;6.65;3.15;;;;;;;16.40;22.81;100246.91;5104966;28;20581;-74
2021/03/22 10:21:24;;;;;;;11.15;3.88;;;;;;;16.08;23.34;100243.28;5104821;28;20051;-74
2021/03/22 10:25:00;;;;;;;7.78;3.67;;;;;;;16.39;23.18;100228.97;5097999;28;20047;-74
2021/03/22 10:28:15;;;;;;;4.63;3.70;;;;;;;16.32;22.59;100233.41;5085525;28;20380;-73
2021/03/22 10:31:24;;;;;;;14.88;4.22;;;;;;;15.98;23.45;100229.06;5085091;28;20051;-74
2021/03/22 10:35:01;;;;;;;4.65;3.55;;;;;;;15.67;22.90;100229.97;5085286;28;20067;-74
2021/03/22 10:38:17;;;;;;;5.47;3.70;;;;;;;15.33;23.77;100235.53;5097791;28;20055;-74
2021/03/22 10:41:32;;;;;;;7.95;3.60;;;;;;;15.13;24.21;100236.84;5097642;28;20051;-74
2021/03/22 10:44:37;;;;;;;7.13;3.88;;;;;;;14.71;24.31;100223.41;5097601;28;20482;-73
2021/03/22 10:47:41;;;;;;;4.15;3.22;;;;;;;14.41;25.00;100227.50;5097576;28;20055;-73
2021/03/22 10:50:45;;;;;;;5.68;3.63;;;;;;;13.96;25.20;100224.19;5097780;28;20558;-74
2021/03/22 10:54:09;;;;;;;4.75;3.85;;;;;;;14.13;25.59;100218.72;5097745;28;20047;-75
2021/03/22 10:57:24;;;;;;;7.78;3.72;;;;;;;14.14;25.82;100219.59;5097315;28;20098;-75
2021/03/22 11:00:32;;;;;;;9.32;3.80;;;;;;;14.22;25.59;100225.03;5097315;28;20063;-73
2021/03/22 11:03:37;;;;;;;9.80;3.67;;;;;;;14.27;25.76;100214.56;5084728;28;20482;-75
2021/03/22 11:06:45;;;;;;;4.85;3.10;;;;;;;14.39;25.57;100218.72;5097209;28;20042;-75
2021/03/22 11:10:14;;;;;;;7.88;3.78;;;;;;;14.32;25.29;100225.75;5097211;28;20058;-75
2021/03/22 11:13:26;;;;;;;4.97;3.53;;;;;;;14.26;25.27;100219.16;5097103;28;20071;-73
2021/03/22 11:16:35;;;;;;;6.25;3.47;;;;;;;14.05;27.03;100234.03;5084532;28;20039;-75
2021/03/22 11:19:45;;;;;;;6.93;4.05;;;;;;;14.19;26.09;100220.81;5096970;28;20051;-75
2021/03/22 11:22:51;;;;;;;4.32;3.08;;;;;;;14.21;25.36;100223.34;5096545;28;20047;-73
2021/03/22 11:26:09;;;;;;;4.15;2.30;;;;;;;13.96;24.50;100224.19;5084267;28;20055;-73
2021/03/22 11:29:21;;;;;;;3.45;2.28;;;;;;;13.88;24.35;100213.34;5084136;28;20059;-73
2021/03/22 11:32:32;;;;;;;3.40;2.43;;;;;;;13.95;24.27;100219.81;5095595;28;20498;-76
2021/03/22 11:35:37;;;;;;;4.15;2.50;;;;;;;13.89;24.39;100220.44;5096624;28;20047;-75
2021/03/22 11:38:49;;;;;;;5.35;2.78;;;;;;;13.94;24.17;100218.13;5096971;28;20047;-74
2021/03/22 11:41:54;;;;;;;5.28;2.88;;;;;;;14.02;24.90;100210.91;5096531;28;20407;-75
2021/03/22 11:45:00;;;;;;;4.00;2.50;;;;;;;14.18;24.20;100205.59;5096389;28;20478;-74
2021/03/22 11:48:28;;;;;;;4.72;2.42;;;;;;;14.36;24.37;100202.00;5083771;28;20055;-76
2021/03/22 11:51:33;;;;;;;3.20;2.42;;;;;;;14.29;24.28;100196.38;5096279;28;20051;-74
2021/03/22 11:54:53;;;;;;;4.88;2.63;;;;;;;14.27;24.80;100187.56;5096246;28;20043;-74
2021/03/22 11:57:57;;;;;;;5.05;2.67;;;;;;;14.20;25.46;100181.13;5083789;28;20051;-74
2021/03/22 12:01:29;;;;;;;3.00;1.85;;;;;;;14.02;23.23;100185.78;5096139;28;20391;-74
2021/03/22 12:04:34;;;;;;;3.30;2.20;;;;;;;13.75;23.50;100185.97;5096052;28;20055;-75
2021/03/22 12:07:43;;;;;;;2.75;1.88;;;;;;;13.48;23.54;100179.69;5083594;28;20407;-75
2021/03/22 12:10:48;;;;;;;4.97;2.20;;;;;;;13.60;24.25;100177.59;5083528;28;20055;-75
2021/03/22 12:13:55;;;;;;;2.75;1.73;;;;;;;13.62;22.80;100171.06;5083302;28;20051;-75
2021/03/22 12:17:17;;;;;;;3.00;1.73;;;;;;;13.54;22.11;100167.44;5095887;28;20059;-76
2021/03/22 12:20:26;;;;;;;2.80;1.80;;;;;;;13.59;22.78;100165.97;5095696;28;20054;-75
2021/03/22 12:23:30;;;;;;;2.50;1.35;;;;;;;13.70;22.23;100165.69;5095697;28;20047;-74
2021/03/22 12:26:35;;;;;;;2.85;1.92;;;;;;;13.74;22.51;100168.06;5082917;28;20055;-74
2021/03/22 12:29:41;;;;;;;3.45;1.70;;;;;;;13.85;23.07;100167.81;5095573;28;20502;-74
2021/03/22 12:32:46;;;;;;;2.85;1.90;;;;;;;13.91;23.83;100167.16;5095270;28;20051;-80
2021/03/22 12:35:50;;;;;;;4.35;2.30;;;;;;;13.79;24.82;100169.28;5095777;28;20055;-74
2021/03/22 12:38:54;;;;;;;3.80;2.50;;;;;;;13.77;24.53;100156.97;5095686;28;20059;-75
2021/03/22 12:42:19;;;;;;;3.95;2.42;;;;;;;13.86;24.30;100167.66;5095352;28;20066;-82
2021/03/22 12:45:30;;;;;;;4.38;2.78;;;;;;;13.96;24.11;100154.88;5095202;28;20063;-75
2021/03/22 12:48:35;;;;;;;6.57;2.67;;;;;;;14.02;24.78;100156.09;5082528;28;20395;-74
2021/03/22 12:51:39;;;;;;;3.95;2.53;;;;;;;14.02;23.65;100156.91;5095386;28;20047;-75
2021/03/22 12:54:44;;;;;;;4.68;2.45;;;;;;;13.87;23.51;100152.31;5082659;28;20039;-80
2021/03/22 12:57:50;;;;;;;3.92;2.40;;;;;;;13.93;23.65;100148.94;5095091;28;20051;-75
2021/03/22 13:00:56;;;;;;;3.97;2.38;;;;;;;13.98;23.86;100150.16;5082235;28;20043;-74
2021/03/22 13:04:00;;;;;;;5.22;2.60;;;;;;;14.01;23.81;100154.41;5094852;28;20051;-74
2021/03/22 13:07:05;;;;;;;3.65;2.22;;;;;;;14.04;22.71;100145.97;5094920;28;20470;-74
2021/03/22 13:10:11;;;;;;;5.45;2.08;;;;;;;14.02;22.79;100151.53;5094840;28;20047;-74
2021/03/22 13:13:17;;;;;;;3.15;1.73;;;;;;;14.02;22.47;100148.00;5082392;28;20051;-74
2021/03/22 13:16:22;;;;;;;2.85;1.85;;;;;;;14.10;22.62;100139.91;5094781;28;20375;-74
2021/03/22 13:19:26;;;;;;;5.03;3.08;;;;;;;14.02;22.12;100146.13;5094661;28;20051;-74
2021/03/22 13:22:31;;;;;;;3.95;1.90;;;;;;;13.99;21.82;100140.22;5094364;28;20055;-83
2021/03/22 13:25:38;;;;;;;3.50;2.00;;;;;;;13.93;22.36;100140.84;5082018;28;20051;-74
2021/03/22 13:28:51;;;;;;;5.40;1.85;;;;;;;14.05;22.74;100139.56;5094179;28;20067;-77
2021/03/22 13:31:55;;;;;;;5.97;2.05;;;;;;;14.01;22.47;100136.34;5094603;28;20055;-76
2021/03/22 13:35:00;;;;;;;3.33;1.90;;;;;;;13.82;22.25;100133.91;5094180;28;20392;-75
2021/03/22 13:38:06;;;;;;;3.60;2.13;;;;;;;13.81;23.14;100140.28;5082050;28;20070;-75
2021/03/22 13:41:20;;;;;;;3.50;2.00;;;;;;;13.96;22.62;100135.13;5094331;28;20047;-73
2021/03/22 13:44:24;;;;;;;2.97;2.10;;;;;;;13.93;21.50;100140.84;5094153;28;20047;-75
2021/03/22 13:47:28;;;;;;;2.78;1.80;;;;;;;13.92;21.64;100139.19;5081630;28;20047;-74
2021/03/22 13:50:33;;;;;;;3.72;1.88;;;;;;;13.95;22.27;100136.16;5081422;28;20043;-74
2021/03/22 13:53:37;;;;;;;3.88;2.13;;;;;;;14.02;21.96;100135.31;5081750;28;20050;-74
2021/03/22 13:56:41;;;;;;;3.08;2.20;;;;;;;13.97;22.02;100126.91;5094067;28;20051;-74
2021/03/22 13:59:46;;;;;;;4.70;2.03;;;;;;;13.94;22.35;100121.81;5081475;28;20047;-74
2021/03/22 14:02:50;;;;;;;4.35;2.15;;;;;;;13.95;22.57;100117.28;5093960;28;20517;-74
2021/03/22 14:05:56;;;;;;;5.60;2.28;;;;;;;13.93;22.55;100108.47;5093899;28;20043;-74
2021/03/22 14:09:01;;;;;;;3.50;2.20;;;;;;;13.94;22.86;100115.56;5093761;28;20051;-74
2021/03/22 14:12:07;;;;;;;3.30;2.10;;;;;;;13.98;22.67;100098.88;5093921;28;20403;-74
2021/03/22 14:15:34;;;;;;;3.97;2.40;;;;;;;14.03;22.29;100104.66;5081404;28;20400;-74
2021/03/22 14:18:40;;;;;;;4.20;2.40;;;;;;;13.96;22.42;100106.31;5093880;28;20372;-74
2021/03/22 14:21:45;;;;;;;3.25;2.08;;;;;;;14.02;22.72;100105.63;5093740;28;20056;-74
2021/03/22 14:24:49;;;;;;;4.55;2.25;;;;;;;14.17;22.58;100112.13;5081339;28;20047;-74
2021/03/22 14:27:54;;;;;;;2.95;2.00;;;;;;;14.22;22.64;100104.38;5093682;28;20051;-75
2021/03/22 14:30:58;;;;;;;3.38;2.67;;;;;;;14.29;23.84;100109.97;5093815;28;20114;-75
2021/03/22 14:34:04;;;;;;;3.85;2.10;;;;;;;14.30;23.39;100104.44;5092962;28;20390;-74
2021/03/22 14:37:09;;;;;;;3.95;2.20;;;;;;;14.38;23.05;100098.22;5080911;28;20048;-74
2021/03/22 14:40:14;;;;;;;4.07;2.03;;;;;;;14.29;21.95;100093.78;5093836;28;20046;-74
2021/03/22 14:43:19;;;;;;;11.23;2.63;;;;;;;14.24;22.29;100102.38;5081131;28;20051;-74
2021/03/22 14:46:24;;;;;;;3.17;1.90;;;;;;;14.28;21.70;100092.06;5081177;28;20043;-75
2021/03/22 14:49:28;;;;;;;2.70;1.88;;;;;;;14.24;22.08;100101.53;5093384;28;20486;-75
2021/03/22 14:52:33;;;;;;;3.30;1.90;;;;;;;14.29;21.72;100100.00;5093373;28;20043;-73
2021/03/22 14:55:37;;;;;;;3.35;1.90;;;;;;;14.29;21.76;100091.09;5080963;28;20039;-74